Time;durP1;ratioP1;P1;durP2;ratioP2;P2;SDS_P1;SDS_P2;PMS_P1;PMS_P2;Temp;Humidity;BMP_temperature;BMP_pressure;BME280_temperature;BME280_humidity;BME280_pressure;Samples;Min_cycle;Max_cycle;Signal;HPM_P1;HPM_P2
2021/05/23 00:01:37;;;;;;;5.78;1.52;;;;;;;;;;10298754;28;20584;-67
2021/05/23 00:06:33;;;;;;;5.85;1.40;;;;;;;;;;10301370;28;20049;-67
2021/05/23 00:11:29;;;;;;;9.18;1.55;;;;;;;;;;10302662;28;20045;-64
2021/05/23 00:16:26;;;;;;;6.43;1.25;;;;;;;;;;10302131;28;20086;-64
2021/05/23 00:21:23;;;;;;;6.68;1.27;;;;;;;;;;10309004;28;20079;-65
2021/05/23 00:26:19;;;;;;;8.93;2.10;;;;;;;;;;10305340;28;20049;-65
2021/05/23 00:31:16;;;;;;;8.80;1.67;;;;;;;;;;10304163;28;20102;-65
2021/05/23 00:36:12;;;;;;;7.95;1.90;;;;;;;;;;10313402;28;20037;-65
2021/05/23 00:41:09;;;;;;;6.70;1.77;;;;;;;;;;10296506;28;20140;-66
2021/05/23 00:46:05;;;;;;;7.90;1.27;;;;;;;;;;10306366;28;20452;-66
2021/05/23 00:51:02;;;;;;;9.60;1.60;;;;;;;;;;10309393;28;20502;-66
2021/05/23 00:55:59;;;;;;;6.93;1.83;;;;;;;;;;10295855;28;20163;-66
2021/05/23 01:00:55;;;;;;;6.80;1.50;;;;;;;;;;10301185;28;20044;-66
2021/05/23 01:05:56;;;;;;;6.93;1.45;;;;;;;;;;10301346;28;20071;-67
2021/05/23 01:10:53;;;;;;;7.07;1.40;;;;;;;;;;10290652;28;20067;-66
2021/05/23 01:15:50;;;;;;;10.95;2.40;;;;;;;;;;10303485;28;20064;-66
2021/05/23 01:20:52;;;;;;;11.48;2.15;;;;;;;;;;10296217;28;20037;-66
2021/05/23 01:25:50;;;;;;;8.50;2.15;;;;;;;;;;10292840;28;20102;-67
2021/05/23 01:30:48;;;;;;;8.55;1.55;;;;;;;;;;10297387;28;20041;-67
2021/05/23 01:35:47;;;;;;;10.68;1.90;;;;;;;;;;10301971;28;20044;-66
2021/05/23 01:40:44;;;;;;;7.88;1.73;;;;;;;;;;10286665;28;20489;-67
2021/05/23 01:45:40;;;;;;;6.15;1.50;;;;;;;;;;10304376;28;20093;-66
2021/05/23 01:50:38;;;;;;;7.72;1.63;;;;;;;;;;10306090;28;20494;-67
2021/05/23 01:55:35;;;;;;;6.30;1.17;;;;;;;;;;10306505;28;20037;-69
2021/05/23 02:00:31;;;;;;;14.35;1.88;;;;;;;;;;10299635;28;20110;-68
2021/05/23 02:05:27;;;;;;;9.55;1.52;;;;;;;;;;10305214;28;20048;-68
2021/05/23 02:10:24;;;;;;;8.10;1.60;;;;;;;;;;10301852;28;20049;-68
2021/05/23 02:15:20;;;;;;;5.63;1.20;;;;;;;;;;10307978;28;20098;-68
2021/05/23 02:20:18;;;;;;;4.53;1.20;;;;;;;;;;10302774;28;20114;-69
2021/05/23 02:25:16;;;;;;;6.25;2.42;;;;;;;;;;10292944;28;20105;-67
2021/05/23 02:30:15;;;;;;;8.90;2.17;;;;;;;;;;10299269;28;20104;-69
2021/05/23 02:35:12;;;;;;;7.40;1.90;;;;;;;;;;10291905;28;20410;-67
2021/05/23 02:40:10;;;;;;;14.77;2.58;;;;;;;;;;10289859;28;20072;-68
2021/05/23 02:45:10;;;;;;;10.73;1.45;;;;;;;;;;10296488;28;20049;-68
2021/05/23 02:50:08;;;;;;;8.27;2.00;;;;;;;;;;10301020;28;20045;-67
2021/05/23 02:55:08;;;;;;;10.10;1.60;;;;;;;;;;10297079;28;20053;-67
2021/05/23 03:00:05;;;;;;;6.05;1.20;;;;;;;;;;10297624;28;20086;-68
2021/05/23 03:05:03;;;;;;;7.93;1.60;;;;;;;;;;10302383;28;20045;-70
2021/05/23 03:10:00;;;;;;;12.40;1.88;;;;;;;;;;10299419;28;20445;-70
2021/05/23 03:14:56;;;;;;;12.15;2.25;;;;;;;;;;10301868;28;20044;-69
2021/05/23 03:19:52;;;;;;;8.73;1.50;;;;;;;;;;10305750;28;20091;-71
2021/05/23 03:24:49;;;;;;;4.63;1.83;;;;;;;;;;10300883;28;20046;-70
2021/05/23 03:29:45;;;;;;;6.90;1.77;;;;;;;;;;10295346;28;20078;-70
2021/05/23 03:34:41;;;;;;;10.20;1.98;;;;;;;;;;10298215;28;20102;-70
2021/05/23 03:39:38;;;;;;;8.38;1.85;;;;;;;;;;10294722;28;20044;-70
2021/05/23 03:44:34;;;;;;;8.52;2.05;;;;;;;;;;10293120;28;20059;-70
2021/05/23 03:49:30;;;;;;;9.13;1.92;;;;;;;;;;10303908;28;20102;-70
2021/05/23 03:54:27;;;;;;;8.98;2.20;;;;;;;;;;10293082;28;20044;-69
2021/05/23 03:59:23;;;;;;;9.52;2.40;;;;;;;;;;10295862;28;20068;-69
2021/05/23 04:04:23;;;;;;;9.77;1.88;;;;;;;;;;10281841;28;20048;-69
2021/05/23 04:09:19;;;;;;;13.18;1.90;;;;;;;;;;10293682;28;20067;-65
2021/05/23 04:14:16;;;;;;;10.32;2.05;;;;;;;;;;10295149;28;20048;-66
2021/05/23 04:19:12;;;;;;;7.40;1.80;;;;;;;;;;10284645;28;20095;-70
2021/05/23 04:24:09;;;;;;;14.18;2.03;;;;;;;;;;10295603;28;20037;-70
2021/05/23 04:29:05;;;;;;;8.80;1.70;;;;;;;;;;10305711;28;20095;-70
2021/05/23 04:34:03;;;;;;;10.07;2.28;;;;;;;;;;10290572;28;20048;-69
2021/05/23 04:39:00;;;;;;;7.60;1.75;;;;;;;;;;10298015;28;20098;-70
2021/05/23 04:43:56;;;;;;;9.20;2.05;;;;;;;;;;10295633;28;20195;-67
2021/05/23 04:48:52;;;;;;;10.85;2.20;;;;;;;;;;10298158;28;20040;-70
2021/05/23 04:53:53;;;;;;;12.38;3.03;;;;;;;;;;10301434;28;20082;-70
2021/05/23 04:58:49;;;;;;;14.10;2.83;;;;;;;;;;10299289;28;20456;-69
2021/05/23 05:03:45;;;;;;;12.57;2.47;;;;;;;;;;10301699;28;20118;-67
2021/05/23 05:08:42;;;;;;;12.23;2.35;;;;;;;;;;10293379;28;20103;-67
2021/05/23 05:13:38;;;;;;;8.00;2.22;;;;;;;;;;10296243;28;20143;-68
2021/05/23 05:18:38;;;;;;;13.52;2.00;;;;;;;;;;10306191;28;20557;-69
2021/05/23 05:23:34;;;;;;;14.25;1.92;;;;;;;;;;10293203;28;20097;-69
2021/05/23 05:28:30;;;;;;;14.20;2.65;;;;;;;;;;10292207;28;20048;-69
2021/05/23 05:33:27;;;;;;;8.32;1.63;;;;;;;;;;10292993;28;20045;-69
2021/05/23 05:38:23;;;;;;;11.45;2.35;;;;;;;;;;10297447;28;20490;-71
2021/05/23 05:43:21;;;;;;;9.98;1.67;;;;;;;;;;10298810;28;20048;-70
2021/05/23 05:48:17;;;;;;;16.90;1.88;;;;;;;;;;10304916;28;20048;-70
2021/05/23 05:53:14;;;;;;;13.63;2.75;;;;;;;;;;10299099;28;20682;-69
2021/05/23 05:58:10;;;;;;;9.13;1.75;;;;;;;;;;10289768;28;20079;-69
2021/05/23 06:03:07;;;;;;;10.00;2.90;;;;;;;;;;10296392;28;20490;-70
2021/05/23 06:08:03;;;;;;;15.05;2.42;;;;;;;;;;10296182;28;20714;-69
2021/05/23 06:13:00;;;;;;;12.68;2.30;;;;;;;;;;10296125;28;20044;-68
2021/05/23 06:17:57;;;;;;;16.50;1.98;;;;;;;;;;10298760;28;20047;-69
2021/05/23 06:22:53;;;;;;;12.52;1.90;;;;;;;;;;10291182;28;20037;-68
2021/05/23 06:27:49;;;;;;;12.80;2.10;;;;;;;;;;10293695;28;20087;-69
2021/05/23 06:32:46;;;;;;;13.27;2.08;;;;;;;;;;10291369;28;20040;-68
2021/05/23 06:37:45;;;;;;;8.05;1.95;;;;;;;;;;10302468;28;20681;-67
2021/05/23 06:42:41;;;;;;;9.73;1.98;;;;;;;;;;10302597;28;20486;-67
2021/05/23 06:47:37;;;;;;;7.35;1.33;;;;;;;;;;10303081;28;20040;-70
2021/05/23 06:52:34;;;;;;;15.23;2.33;;;;;;;;;;10303654;28;20106;-70
2021/05/23 06:57:31;;;;;;;10.50;1.60;;;;;;;;;;10302035;28;20064;-71
2021/05/23 07:02:28;;;;;;;12.25;1.55;;;;;;;;;;10302422;28;20517;-71
2021/05/23 07:07:24;;;;;;;12.57;2.22;;;;;;;;;;10302307;28;20036;-66
2021/05/23 07:12:21;;;;;;;11.55;1.80;;;;;;;;;;10298804;28;20162;-69
2021/05/23 07:17:17;;;;;;;10.57;1.73;;;;;;;;;;10303057;28;20044;-67
2021/05/23 07:22:14;;;;;;;12.82;1.73;;;;;;;;;;10305882;28;20040;-68
2021/05/23 07:27:10;;;;;;;11.52;1.63;;;;;;;;;;10298359;28;20052;-68
2021/05/23 07:32:07;;;;;;;6.43;1.33;;;;;;;;;;10295503;28;20075;-69
2021/05/23 07:37:03;;;;;;;14.00;2.35;;;;;;;;;;10300747;28;20102;-70
2021/05/23 07:41:59;;;;;;;11.70;1.73;;;;;;;;;;10300679;28;20498;-69
2021/05/23 07:46:56;;;;;;;13.38;3.05;;;;;;;;;;10297572;28;20052;-72
2021/05/23 07:51:52;;;;;;;9.50;1.85;;;;;;;;;;10302789;28;20464;-71
2021/05/23 07:56:48;;;;;;;12.93;1.52;;;;;;;;;;10301274;28;20037;-71
2021/05/23 08:01:45;;;;;;;12.63;2.15;;;;;;;;;;10310445;28;20071;-71
2021/05/23 08:06:41;;;;;;;6.65;1.10;;;;;;;;;;10305973;28;20053;-72
2021/05/23 08:11:37;;;;;;;10.27;1.45;;;;;;;;;;10309104;28;20097;-71
2021/05/23 08:16:34;;;;;;;7.22;1.80;;;;;;;;;;10300516;28;20067;-71
2021/05/23 08:21:34;;;;;;;13.75;2.25;;;;;;;;;;10306751;28;20144;-72
2021/05/23 08:26:31;;;;;;;10.60;1.63;;;;;;;;;;10307274;28;20044;-71
2021/05/23 08:31:27;;;;;;;10.90;1.80;;;;;;;;;;10306481;28;20098;-72
2021/05/23 08:36:24;;;;;;;9.93;2.33;;;;;;;;;;10302050;28;20701;-72
2021/05/23 08:41:20;;;;;;;10.13;1.30;;;;;;;;;;10311567;28;20056;-72
2021/05/23 08:46:17;;;;;;;9.25;1.30;;;;;;;;;;10295944;28;20060;-72
2021/05/23 08:51:13;;;;;;;8.48;1.35;;;;;;;;;;10306207;28;20043;-70
2021/05/23 08:56:10;;;;;;;10.98;2.00;;;;;;;;;;10303995;28;20064;-70
2021/05/23 09:01:06;;;;;;;9.90;1.50;;;;;;;;;;10294686;28;20102;-71
2021/05/23 09:06:03;;;;;;;17.73;8.30;;;;;;;;;;10304180;28;20047;-71
2021/05/23 09:11:00;;;;;;;7.47;1.33;;;;;;;;;;10293290;28;20601;-71
2021/05/23 09:16:01;;;;;;;5.40;1.20;;;;;;;;;;10302442;28;20106;-71
2021/05/23 09:21:01;;;;;;;6.50;1.10;;;;;;;;;;10299677;28;20568;-71
2021/05/23 09:26:02;;;;;;;8.32;1.48;;;;;;;;;;10298846;28;20051;-71
2021/05/23 09:31:09;;;;;;;7.38;0.88;;;;;;;;;;10300162;28;20047;-71
2021/05/23 09:36:05;;;;;;;7.05;1.35;;;;;;;;;;10286940;28;20044;-71
2021/05/23 09:41:02;;;;;;;7.25;1.05;;;;;;;;;;10296484;28;20072;-71
2021/05/23 09:45:58;;;;;;;6.55;1.42;;;;;;;;;;10301756;28;20045;-71
2021/05/23 09:50:56;;;;;;;8.55;1.40;;;;;;;;;;10292155;28;20044;-71
2021/05/23 09:56:03;;;;;;;4.07;0.88;;;;;;;;;;10297268;28;20530;-71
2021/05/23 10:01:00;;;;;;;5.50;1.00;;;;;;;;;;10290462;28;20044;-72
2021/05/23 10:05:57;;;;;;;4.20;1.00;;;;;;;;;;10298908;28;20049;-72
2021/05/23 10:10:54;;;;;;;10.85;1.20;;;;;;;;;;10292713;28;20122;-70
2021/05/23 10:15:50;;;;;;;7.90;1.30;;;;;;;;;;10300063;28;20040;-72
2021/05/23 10:20:47;;;;;;;6.38;1.30;;;;;;;;;;10298513;28;20053;-72
2021/05/23 10:25:48;;;;;;;5.97;1.00;;;;;;;;;;10302654;28;20059;-72
2021/05/23 10:30:54;;;;;;;6.43;1.10;;;;;;;;;;10299645;28;20410;-72
2021/05/23 10:35:53;;;;;;;5.72;0.90;;;;;;;;;;10295125;28;20041;-72
2021/05/23 10:40:56;;;;;;;4.38;0.95;;;;;;;;;;10297641;28;20427;-71
2021/05/23 10:46:10;;;;;;;3.20;0.63;;;;;;;;;;10294320;28;20072;-71
2021/05/23 10:51:10;;;;;;;6.43;1.10;;;;;;;;;;10299158;28;20044;-69
2021/05/23 10:56:16;;;;;;;3.88;0.73;;;;;;;;;;10296602;28;20068;-71
2021/05/23 11:01:13;;;;;;;5.53;1.10;;;;;;;;;;10294590;28;20083;-71
2021/05/23 11:06:09;;;;;;;4.63;0.90;;;;;;;;;;10301312;28;20155;-71
2021/05/23 11:11:08;;;;;;;6.00;0.88;;;;;;;;;;10302233;28;20106;-70
2021/05/23 11:16:08;;;;;;;7.35;0.90;;;;;;;;;;10293653;28;20042;-71
2021/05/23 11:21:06;;;;;;;5.28;1.10;;;;;;;;;;10288698;28;20037;-70
2021/05/23 11:26:04;;;;;;;6.38;1.00;;;;;;;;;;10287530;28;20500;-70
2021/05/23 11:31:00;;;;;;;4.45;0.90;;;;;;;;;;10285088;28;20060;-72
2021/05/23 11:35:57;;;;;;;5.43;0.98;;;;;;;;;;10295840;28;20056;-71
2021/05/23 11:40:53;;;;;;;5.30;0.80;;;;;;;;;;10299055;28;20048;-71
2021/05/23 11:45:52;;;;;;;3.45;0.90;;;;;;;;;;10295814;28;20041;-72
2021/05/23 11:50:49;;;;;;;5.50;0.82;;;;;;;;;;10301160;28;20521;-70
2021/05/23 11:55:49;;;;;;;5.18;0.90;;;;;;;;;;10298320;28;20457;-71
2021/05/23 12:00:46;;;;;;;4.78;1.20;;;;;;;;;;10301614;28;20740;-70
2021/05/23 12:05:43;;;;;;;3.75;1.15;;;;;;;;;;10288495;28;20106;-71
2021/05/23 12:10:40;;;;;;;4.10;0.82;;;;;;;;;;10280364;28;20045;-71
2021/05/23 12:15:37;;;;;;;5.70;0.93;;;;;;;;;;10296878;28;20048;-73
2021/05/23 12:20:33;;;;;;;5.50;0.80;;;;;;;;;;11176297;22;21018;-72
2021/05/23 12:25:30;;;;;;;3.92;0.73;;;;;;;;;;10249660;28;20792;-69
2021/05/23 12:30:28;;;;;;;7.00;1.48;;;;;;;;;;10262692;28;20132;-72
2021/05/23 12:35:30;;;;;;;10.32;2.47;;;;;;;;;;10231604;28;20316;-70
2021/05/23 12:40:27;;;;;;;3.50;1.02;;;;;;;;;;10237329;28;20098;-70
2021/05/23 12:45:27;;;;;;;2.50;0.90;;;;;;;;;;10235036;28;20080;-69
2021/05/23 12:50:30;;;;;;;4.80;1.17;;;;;;;;;;10236968;28;20103;-71
2021/05/23 12:55:28;;;;;;;4.72;1.23;;;;;;;;;;10236539;28;20053;-69
2021/05/23 13:00:26;;;;;;;4.70;1.15;;;;;;;;;;10237955;28;20069;-71
2021/05/23 13:05:23;;;;;;;3.85;0.95;;;;;;;;;;10234214;28;20106;-70
2021/05/23 13:10:19;;;;;;;6.53;1.60;;;;;;;;;;10236900;28;20037;-70
2021/05/23 13:15:16;;;;;;;5.50;1.20;;;;;;;;;;10241180;28;20117;-70
2021/05/23 13:20:16;;;;;;;4.82;1.35;;;;;;;;;;10236188;28;20050;-71
2021/05/23 13:25:13;;;;;;;5.90;1.42;;;;;;;;;;10240546;28;20053;-72
2021/05/23 13:30:09;;;;;;;5.88;1.20;;;;;;;;;;10240880;28;20463;-71
2021/05/23 13:35:06;;;;;;;4.07;1.42;;;;;;;;;;10243257;28;20432;-71
2021/05/23 13:40:03;;;;;;;4.05;1.38;;;;;;;;;;10236048;28;20052;-68
2021/05/23 13:45:00;;;;;;;4.88;1.20;;;;;;;;;;10209817;28;20048;-69
2021/05/23 13:50:16;;;;;;;7.03;2.10;;;;;;;;;;10234404;28;20483;-72
2021/05/23 13:55:12;;;;;;;5.80;1.83;;;;;;;;;;10234845;28;20041;-72
2021/05/23 14:00:14;;;;;;;5.93;1.20;;;;;;;;;;10234866;28;20045;-72
2021/05/23 14:05:11;;;;;;;4.07;1.55;;;;;;;;;;10237528;28;20045;-72
2021/05/23 14:10:08;;;;;;;4.78;1.50;;;;;;;;;;10231852;28;20050;-71
2021/05/23 14:15:04;;;;;;;9.35;2.17;;;;;;;;;;10242702;28;20106;-74
2021/05/23 14:20:07;;;;;;;5.30;1.98;;;;;;;;;;10241858;28;20050;-72
2021/05/23 14:25:03;;;;;;;5.32;1.90;;;;;;;;;;10236875;28;20052;-71
2021/05/23 14:30:00;;;;;;;4.57;1.70;;;;;;;;;;10233133;28;20080;-72
2021/05/23 14:34:56;;;;;;;6.75;2.03;;;;;;;;;;10232206;28;20107;-71
2021/05/23 14:39:52;;;;;;;5.63;2.00;;;;;;;;;;10241239;28;20061;-72
2021/05/23 14:44:49;;;;;;;5.22;2.03;;;;;;;;;;10240772;28;20072;-71
2021/05/23 14:49:55;;;;;;;4.13;2.17;;;;;;;;;;10232614;28;20053;-71
2021/05/23 14:54:52;;;;;;;3.35;1.80;;;;;;;;;;10232797;28;20056;-71
2021/05/23 14:59:49;;;;;;;4.15;1.80;;;;;;;;;;10237392;28;20040;-72
2021/05/23 15:04:45;;;;;;;5.80;2.22;;;;;;;;;;10234343;28;20103;-72
2021/05/23 15:09:44;;;;;;;3.42;1.70;;;;;;;;;;10228276;28;20263;-70
2021/05/23 15:14:43;;;;;;;6.10;2.13;;;;;;;;;;10226075;28;20053;-69
2021/05/23 15:19:40;;;;;;;6.28;1.70;;;;;;;;;;10224633;28;20068;-70
2021/05/23 15:24:36;;;;;;;3.97;1.60;;;;;;;;;;10226795;28;20037;-68
2021/05/23 15:29:52;;;;;;;4.13;1.60;;;;;;;;;;10224918;28;20546;-70
2021/05/23 15:34:57;;;;;;;4.38;2.00;;;;;;;;;;10222758;28;20046;-70
2021/05/23 15:39:53;;;;;;;3.60;1.42;;;;;;;;;;10227816;28;20073;-69
2021/05/23 15:44:49;;;;;;;4.25;1.23;;;;;;;;;;10228213;28;20065;-70
2021/05/23 15:49:46;;;;;;;4.68;1.60;;;;;;;;;;10228609;28;20457;-71
2021/05/23 15:54:42;;;;;;;5.13;1.20;;;;;;;;;;10229684;28;20041;-70
2021/05/23 15:59:38;;;;;;;2.03;0.70;;;;;;;;;;10228904;28;20041;-69
2021/05/23 16:04:34;;;;;;;3.35;0.80;;;;;;;;;;10227680;28;20095;-70
2021/05/23 16:09:31;;;;;;;1.42;0.40;;;;;;;;;;10227265;28;20135;-70
2021/05/23 16:14:27;;;;;;;3.67;0.98;;;;;;;;;;10224170;28;20062;-68
2021/05/23 16:19:24;;;;;;;2.42;1.00;;;;;;;;;;10234369;28;20045;-70
2021/05/23 16:24:20;;;;;;;3.75;1.00;;;;;;;;;;10230535;28;20045;-69
2021/05/23 16:29:16;;;;;;;4.05;1.10;;;;;;;;;;10234483;28;20033;-68
2021/05/23 16:34:13;;;;;;;3.22;1.38;;;;;;;;;;10232460;28;20091;-67
2021/05/23 16:39:09;;;;;;;3.90;1.80;;;;;;;;;;10231717;28;20042;-68
2021/05/23 16:44:06;;;;;;;6.90;2.15;;;;;;;;;;10232562;28;20560;-68
2021/05/23 16:49:02;;;;;;;5.05;2.35;;;;;;;;;;10237492;28;20050;-68
2021/05/23 16:54:00;;;;;;;3.55;1.73;;;;;;;;;;10235883;28;20049;-69
2021/05/23 16:58:58;;;;;;;5.78;2.85;;;;;;;;;;10230383;28;20489;-69
2021/05/23 17:03:54;;;;;;;6.15;2.25;;;;;;;;;;10239498;28;20076;-69
2021/05/23 17:08:53;;;;;;;3.22;1.73;;;;;;;;;;10231044;28;20080;-68
2021/05/23 17:13:50;;;;;;;3.45;1.40;;;;;;;;;;10235100;28;20048;-67
2021/05/23 17:18:47;;;;;;;3.53;1.33;;;;;;;;;;10234259;28;20041;-68
2021/05/23 17:23:43;;;;;;;2.30;1.10;;;;;;;;;;10229558;28;20499;-68
2021/05/23 17:28:39;;;;;;;2.42;1.13;;;;;;;;;;10224840;28;20049;-71
2021/05/23 17:33:37;;;;;;;3.38;1.58;;;;;;;;;;10235512;28;20455;-71
2021/05/23 17:38:34;;;;;;;3.92;1.73;;;;;;;;;;10228582;28;20053;-70
2021/05/23 17:43:31;;;;;;;3.30;1.70;;;;;;;;;;10230490;28;20045;-71
2021/05/23 17:48:27;;;;;;;5.13;2.10;;;;;;;;;;10233716;28;20048;-70
2021/05/23 17:53:23;;;;;;;4.50;1.80;;;;;;;;;;10231095;28;20095;-71
2021/05/23 17:58:23;;;;;;;4.03;1.90;;;;;;;;;;10226114;28;20486;-70
2021/05/23 18:03:31;;;;;;;5.38;1.55;;;;;;;;;;10227132;28;20049;-70
2021/05/23 18:08:37;;;;;;;9.00;5.68;;;;;;;;;;10227162;28;20042;-70
2021/05/23 18:13:34;;;;;;;6.18;1.83;;;;;;;;;;10230396;28;20050;-70
2021/05/23 18:18:31;;;;;;;7.28;1.92;;;;;;;;;;10228514;28;20695;-69
2021/05/23 18:23:27;;;;;;;6.85;2.00;;;;;;;;;;10230091;28;20099;-69
2021/05/23 18:28:24;;;;;;;6.70;2.17;;;;;;;;;;10215480;28;20037;-72
2021/05/23 18:33:21;;;;;;;4.88;2.33;;;;;;;;;;10228348;28;20138;-72
2021/05/23 18:38:20;;;;;;;6.50;2.40;;;;;;;;;;10234925;28;20038;-72
2021/05/23 18:43:16;;;;;;;5.10;2.42;;;;;;;;;;10228267;28;20156;-72
2021/05/23 18:48:17;;;;;;;4.93;2.58;;;;;;;;;;10213819;28;20511;-72
2021/05/23 18:53:13;;;;;;;9.45;2.85;;;;;;;;;;10220091;28;20034;-72
2021/05/23 18:58:10;;;;;;;3.85;2.00;;;;;;;;;;10220897;28;20084;-71
2021/05/23 19:03:07;;;;;;;5.80;2.25;;;;;;;;;;10230345;28;20042;-68
2021/05/23 19:08:04;;;;;;;4.25;2.00;;;;;;;;;;10196694;28;20054;-71
2021/05/23 19:13:00;;;;;;;4.70;2.03;;;;;;;;;;10222474;28;20057;-70
2021/05/23 19:17:57;;;;;;;4.70;2.30;;;;;;;;;;10236407;28;20098;-71
2021/05/23 19:22:54;;;;;;;5.15;2.50;;;;;;;;;;10237150;28;20073;-71
2021/05/23 19:27:54;;;;;;;5.28;2.25;;;;;;;;;;10228505;28;20080;-71
2021/05/23 19:32:51;;;;;;;5.93;2.53;;;;;;;;;;10230428;28;20636;-71
2021/05/23 19:37:48;;;;;;;5.72;1.80;;;;;;;;;;10229946;28;20044;-71
2021/05/23 19:42:45;;;;;;;7.13;2.28;;;;;;;;;;10229047;28;20514;-71
2021/05/23 19:47:42;;;;;;;7.18;2.15;;;;;;;;;;10227684;28;20087;-71
2021/05/23 19:52:38;;;;;;;6.57;2.25;;;;;;;;;;10235390;28;20099;-71
2021/05/23 19:57:35;;;;;;;4.68;2.10;;;;;;;;;;10238988;28;20083;-71
2021/05/23 20:02:31;;;;;;;5.70;2.03;;;;;;;;;;10246279;28;20041;-71
2021/05/23 20:07:28;;;;;;;6.57;2.20;;;;;;;;;;10242969;28;20050;-71
2021/05/23 20:12:25;;;;;;;9.00;4.00;;;;;;;;;;10233682;28;20053;-69
2021/05/23 20:17:21;;;;;;;8.40;2.50;;;;;;;;;;10230080;28;20080;-70
2021/05/23 20:22:18;;;;;;;6.57;2.20;;;;;;;;;;10235468;28;20059;-70
2021/05/23 20:27:14;;;;;;;9.13;3.50;;;;;;;;;;10236532;28;20045;-69
2021/05/23 20:32:12;;;;;;;6.82;2.25;;;;;;;;;;10237553;28;20099;-71
2021/05/23 20:37:09;;;;;;;6.18;2.20;;;;;;;;;;10232438;28;20045;-71
2021/05/23 20:42:05;;;;;;;5.03;2.13;;;;;;;;;;10230289;28;20076;-71
2021/05/23 20:47:02;;;;;;;10.73;3.65;;;;;;;;;;10236724;28;20041;-71
2021/05/23 20:51:58;;;;;;;5.05;2.00;;;;;;;;;;10228251;28;20041;-71
2021/05/23 20:56:55;;;;;;;5.95;2.35;;;;;;;;;;10236320;28;20099;-72
2021/05/23 21:01:51;;;;;;;5.47;2.08;;;;;;;;;;10233825;28;20091;-72
2021/05/23 21:06:48;;;;;;;8.57;3.00;;;;;;;;;;10237463;28;20049;-70
2021/05/23 21:11:45;;;;;;;7.15;2.63;;;;;;;;;;10233371;28;20053;-74
2021/05/23 21:16:41;;;;;;;6.63;2.92;;;;;;;;;;10225088;28;20519;-72
2021/05/23 21:21:38;;;;;;;7.57;2.70;;;;;;;;;;10231458;28;20041;-70
2021/05/23 21:26:34;;;;;;;7.10;3.15;;;;;;;;;;10238069;28;20495;-71
2021/05/23 21:31:31;;;;;;;9.07;3.67;;;;;;;;;;10234263;28;20090;-70
2021/05/23 21:36:29;;;;;;;10.43;3.30;;;;;;;;;;10247267;28;20557;-71
2021/05/23 21:41:26;;;;;;;11.90;3.97;;;;;;;;;;10248562;28;20049;-70
2021/05/23 21:46:22;;;;;;;7.88;3.65;;;;;;;;;;10229663;28;20103;-71
2021/05/23 21:51:19;;;;;;;6.25;3.53;;;;;;;;;;10233472;28;20049;-70
2021/05/23 21:56:16;;;;;;;9.45;3.70;;;;;;;;;;10222199;28;20091;-70
2021/05/23 22:01:12;;;;;;;7.47;3.47;;;;;;;;;;10225207;28;20050;-69
2021/05/23 22:06:09;;;;;;;8.93;3.60;;;;;;;;;;10238613;28;20116;-70
2021/05/23 22:11:06;;;;;;;9.07;3.75;;;;;;;;;;10229896;28;20750;-69
2021/05/23 22:16:03;;;;;;;10.45;5.25;;;;;;;;;;10229579;28;20044;-70
2021/05/23 22:21:00;;;;;;;8.50;4.30;;;;;;;;;;10223805;28;20103;-71
2021/05/23 22:25:56;;;;;;;9.20;4.93;;;;;;;;;;10235244;28;20670;-69
2021/05/23 22:30:53;;;;;;;9.80;4.90;;;;;;;;;;10237705;28;20053;-69
2021/05/23 22:35:49;;;;;;;7.18;4.18;;;;;;;;;;10233023;28;20042;-68
2021/05/23 22:40:45;;;;;;;8.57;4.60;;;;;;;;;;10233862;28;20046;-69
2021/05/23 22:45:42;;;;;;;8.05;4.57;;;;;;;;;;10236965;28;20164;-68
2021/05/23 22:50:43;;;;;;;8.75;3.95;;;;;;;;;;10230093;28;20458;-68
2021/05/23 22:55:50;;;;;;;9.82;4.18;;;;;;;;;;10238782;28;20037;-69
2021/05/23 23:00:50;;;;;;;5.93;3.53;;;;;;;;;;10239881;28;20140;-69
2021/05/23 23:05:46;;;;;;;7.53;3.60;;;;;;;;;;10230822;28;20060;-68
2021/05/23 23:10:43;;;;;;;7.75;4.13;;;;;;;;;;10247651;28;20049;-69
2021/05/23 23:15:40;;;;;;;9.90;4.32;;;;;;;;;;10238544;28;20053;-67
2021/05/23 23:20:36;;;;;;;8.98;4.63;;;;;;;;;;10238831;28;20064;-67
2021/05/23 23:25:33;;;;;;;7.85;3.60;;;;;;;;;;10250367;28;20049;-67
2021/05/23 23:30:29;;;;;;;6.38;3.35;;;;;;;;;;10255011;28;20037;-67
2021/05/23 23:35:26;;;;;;;9.90;4.03;;;;;;;;;;10245747;28;20072;-66
2021/05/23 23:40:22;;;;;;;7.18;4.47;;;;;;;;;;10237295;28;20095;-66
2021/05/23 23:45:18;;;;;;;9.80;4.18;;;;;;;;;;10246114;28;20056;-68
2021/05/23 23:50:15;;;;;;;8.60;3.78;;;;;;;;;;10241794;28;20602;-68
2021/05/23 23:55:14;;;;;;;7.78;3.50;;;;;;;;;;10241833;28;20103;-69
